Time;durP1;ratioP1;P1;durP2;ratioP2;P2;SDS_P1;SDS_P2;PMS_P1;PMS_P2;Temp;Humidity;BMP_temperature;BMP_pressure;BME280_temperature;BME280_humidity;BME280_pressure;Samples;Min_cycle;Max_cycle;Signal;HPM_P1;HPM_P2
2021/03/05 00:00:34;;;;;;;;;41.60;35.10;;;;;6.10;93.29;100138.98;485924;112;385107;-68
2021/03/05 00:01:38;;;;;;;;;43.40;37.10;;;;;6.12;92.85;100132.67;484546;112;386775;-69
2021/03/05 00:02:42;;;;;;;;;35.70;32.70;;;;;6.12;92.85;100132.67;484632;112;385350;-70
2021/03/05 00:03:46;;;;;;;;;40.90;34.80;;;;;6.12;93.33;100129.19;484646;112;385554;-71
2021/03/05 00:04:50;;;;;;;;;47.00;39.40;;;;;6.11;93.59;100133.61;484628;112;386584;-69
2021/03/05 00:05:54;;;;;;;;;30.80;26.00;;;;;6.13;93.11;100136.14;484262;112;382688;-69
2021/03/05 00:06:58;;;;;;;;;51.20;41.80;;;;;6.12;93.62;100134.47;484125;112;385230;-69
2021/03/05 00:08:02;;;;;;;;;47.50;37.20;;;;;6.11;93.30;100130.12;484607;112;387823;-69
2021/03/05 00:09:06;;;;;;;;;43.90;37.10;;;;;6.11;93.30;100130.12;484278;112;393762;-68
2021/03/05 00:10:13;;;;;;;;;47.00;37.00;;;;;6.14;93.38;100136.05;484297;112;387503;-69
2021/03/05 00:11:16;;;;;;;;;40.80;36.90;;;;;6.11;93.58;100130.12;484316;112;387101;-68
2021/03/05 00:12:20;;;;;;;;;43.50;35.40;;;;;6.11;93.58;100130.12;484608;112;387066;-70
2021/03/05 00:13:24;;;;;;;;;41.80;37.60;;;;;6.14;93.42;100122.85;484660;112;386503;-70
2021/03/05 00:14:28;;;;;;;;;22.90;22.50;;;;;6.09;93.56;100124.95;484069;112;381806;-67
2021/03/05 00:15:34;;;;;;;;;42.20;35.60;;;;;6.13;93.31;100115.02;484615;112;385306;-69
2021/03/05 00:16:38;;;;;;;;;48.70;36.60;;;;;6.13;93.49;100118.51;484049;112;393588;-68
2021/03/05 00:17:42;;;;;;;;;45.10;39.30;;;;;6.13;93.49;100118.51;484506;112;393751;-68
2021/03/05 00:18:46;;;;;;;;;48.10;38.40;;;;;6.11;93.75;100123.05;484631;112;387272;-69
2021/03/05 00:19:49;;;;;;;;;46.90;38.70;;;;;6.10;93.19;100110.78;484597;112;385987;-70
2021/03/05 00:20:54;;;;;;;;;47.50;31.40;;;;;6.14;93.52;100117.57;484580;112;388701;-73
2021/03/05 00:21:58;;;;;;;;;44.70;36.40;;;;;6.14;93.52;100117.57;484308;112;386161;-70
2021/03/05 00:23:02;;;;;;;;;41.20;36.20;;;;;6.15;93.32;100107.86;484571;112;392072;-70
2021/03/05 00:24:07;;;;;;;;;33.70;29.30;;;;;6.19;92.98;100109.36;484745;112;382340;-70
2021/03/05 00:25:12;;;;;;;;;43.90;36.90;;;;;6.19;92.98;100109.36;484085;112;385542;-70
2021/03/05 00:26:16;;;;;;;;;40.30;34.90;;;;;6.19;93.29;100104.08;483964;111;393780;-70
2021/03/05 00:27:20;;;;;;;;;45.20;38.10;;;;;6.12;93.88;100103.63;484593;112;385297;-70
2021/03/05 00:28:24;;;;;;;;;44.40;35.50;;;;;6.12;93.88;100103.63;484594;112;387231;-69
2021/03/05 00:29:28;;;;;;;;;45.50;39.90;;;;;6.12;94.12;100098.35;484590;112;385228;-69
2021/03/05 00:30:34;;;;;;;;;53.30;40.20;;;;;6.14;93.74;100095.59;483644;112;388309;-70
2021/03/05 00:31:38;;;;;;;;;41.00;36.30;;;;;6.14;93.79;100087.67;484385;112;385545;-70
2021/03/05 00:32:42;;;;;;;;;45.30;38.70;;;;;6.14;93.79;100087.67;484675;112;387266;-70
2021/03/05 00:33:46;;;;;;;;;47.10;37.60;;;;;6.18;93.45;100092.67;484160;112;387556;-70
2021/03/05 00:34:50;;;;;;;;;48.40;39.70;;;;;6.18;93.45;100092.67;484630;112;386344;-70
2021/03/05 00:35:53;;;;;;;;;50.10;37.10;;;;;6.18;93.48;100090.03;484595;112;385716;-70
2021/03/05 00:36:57;;;;;;;;;42.80;34.10;;;;;6.19;93.23;100093.52;484120;112;385723;-71
2021/03/05 00:38:01;;;;;;;;;51.60;40.10;;;;;6.20;93.12;100088.13;484603;112;386261;-72
2021/03/05 00:39:06;;;;;;;;;49.10;37.90;;;;;6.15;93.54;100087.59;484304;112;387983;-71
2021/03/05 00:40:12;;;;;;;;;48.10;37.20;;;;;6.15;93.54;100087.59;484371;111;386505;-69
2021/03/05 00:41:16;;;;;;;;;48.10;37.40;;;;;6.10;93.90;100094.95;484094;112;386319;-70
2021/03/05 00:42:20;;;;;;;;;46.40;38.00;;;;;6.14;94.48;100093.80;484591;112;386426;-69
2021/03/05 00:43:24;;;;;;;;;51.60;38.90;;;;;6.23;93.30;100094.98;484651;112;385783;-70
2021/03/05 00:44:28;;;;;;;;;50.80;39.70;;;;;6.23;93.30;100094.98;484643;112;385386;-69
2021/03/05 00:45:32;;;;;;;;;50.70;39.90;;;;;6.25;93.20;100096.58;484608;112;384985;-70
2021/03/05 00:46:36;;;;;;;;;50.90;39.90;;;;;6.27;92.66;100091.20;483822;112;391328;-69
2021/03/05 00:47:40;;;;;;;;;48.80;38.00;;;;;6.27;92.66;100091.20;484253;112;387725;-71
2021/03/05 00:48:44;;;;;;;;;49.30;37.50;;;;;6.28;92.52;100098.20;484607;112;384704;-67
2021/03/05 00:49:48;;;;;;;;;48.80;39.60;;;;;6.29;92.64;100091.94;484610;112;386606;-67
2021/03/05 00:50:52;;;;;;;;;55.70;42.20;;;;;6.31;92.27;100101.48;484669;112;386518;-67
2021/03/05 00:51:56;;;;;;;;;50.30;40.00;;;;;6.29;92.41;100095.44;484497;112;385391;-69
2021/03/05 00:53:00;;;;;;;;;46.10;39.20;;;;;6.29;92.41;100095.44;484611;112;385362;-67
2021/03/05 00:54:06;;;;;;;;;52.90;40.20;;;;;6.28;92.74;100100.84;484565;112;392432;-69
2021/03/05 00:55:10;;;;;;;;;51.70;39.80;;;;;6.28;92.74;100100.84;484054;112;385630;-67
2021/03/05 00:56:16;;;;;;;;;39.10;34.10;;;;;6.30;92.42;100109.49;484333;112;392145;-68
2021/03/05 00:57:20;;;;;;;;;46.50;39.00;;;;;6.25;93.08;100096.58;484534;112;391870;-67
2021/03/05 00:58:23;;;;;;;;;38.90;32.60;;;;;6.28;93.12;100099.05;484629;112;383984;-69
2021/03/05 00:59:28;;;;;;;;;52.70;41.50;;;;;6.23;93.33;100100.27;484561;112;390567;-68
2021/03/05 01:00:32;;;;;;;;;56.80;43.60;;;;;6.15;93.84;100095.52;484357;112;384942;-67
2021/03/05 01:01:36;;;;;;;;;47.40;40.20;;;;;6.15;93.84;100095.52;484237;112;385232;-68
2021/03/05 01:02:40;;;;;;;;;48.80;38.80;;;;;6.20;94.11;100113.67;486414;112;386484;-67
2021/03/05 01:03:44;;;;;;;;;51.30;39.40;;;;;6.19;93.89;100107.55;485958;112;383416;-69
2021/03/05 01:04:48;;;;;;;;;52.50;42.80;;;;;6.19;93.89;100107.55;483833;112;392564;-65
2021/03/05 01:05:52;;;;;;;;;43.00;36.60;;;;;6.21;93.76;100108.31;484051;112;385554;-65
2021/03/05 01:06:56;;;;;;;;;48.70;40.70;;;;;6.04;94.01;100079.50;486459;112;384017;-68
2021/03/05 01:08:00;;;;;;;;;52.50;41.40;;;;;6.21;94.10;100104.81;484362;112;384465;-67
2021/03/05 01:09:07;;;;;;;;;46.20;35.90;;;;;6.22;93.97;100102.06;483579;112;385315;-68
2021/03/05 01:10:13;;;;;;;;;48.10;39.40;;;;;6.20;93.74;100103.11;486165;112;385473;-68
2021/03/05 01:11:17;;;;;;;;;50.00;40.20;;;;;6.21;93.93;100097.75;484059;112;386324;-69
2021/03/05 01:12:21;;;;;;;;;54.80;41.80;;;;;6.23;93.81;100102.91;484363;112;386073;-70
2021/03/05 01:13:25;;;;;;;;;67.50;50.70;;;;;6.23;93.81;100102.91;486152;112;387454;-69
2021/03/05 01:14:29;;;;;;;;;46.50;36.70;;;;;6.26;93.51;100095.64;486439;112;383818;-70
2021/03/05 01:15:33;;;;;;;;;51.90;42.80;;;;;6.26;93.51;100095.64;484335;112;384712;-69
2021/03/05 01:16:39;;;;;;;;;53.30;41.90;;;;;6.25;93.43;100103.68;485616;112;385799;-68
2021/03/05 01:17:43;;;;;;;;;50.60;40.90;;;;;6.26;93.34;100094.78;484321;112;385463;-67
2021/03/05 01:18:47;;;;;;;;;52.60;42.00;;;;;6.26;93.00;100106.20;486422;112;386419;-68
2021/03/05 01:19:50;;;;;;;;;50.80;39.90;;;;;6.26;93.00;100106.20;483937;112;387894;-69
2021/03/05 01:20:54;;;;;;;;;40.20;34.10;;;;;6.23;93.11;100095.84;486031;112;384780;-68
2021/03/05 01:21:58;;;;;;;;;54.90;41.30;;;;;6.23;93.25;100092.34;484345;112;385357;-69
2021/03/05 01:23:02;;;;;;;;;55.60;40.90;;;;;6.24;93.77;100092.27;486407;112;386067;-70
2021/03/05 01:24:09;;;;;;;;;46.30;38.20;;;;;6.24;93.77;100092.27;484354;112;387476;-71
2021/03/05 01:25:15;;;;;;;;;55.90;40.40;;;;;6.26;93.13;100097.42;485422;112;385724;-68
2021/03/05 01:26:20;;;;;;;;;54.80;41.00;;;;;6.24;93.28;100091.41;484054;112;386363;-68
2021/03/05 01:27:24;;;;;;;;;55.10;42.80;;;;;6.27;93.31;100092.06;486506;112;384806;-68
2021/03/05 01:28:28;;;;;;;;;55.30;41.50;;;;;6.27;93.31;100092.06;484429;112;385055;-68
2021/03/05 01:29:32;;;;;;;;;53.90;41.20;;;;;6.28;92.97;100091.13;486379;112;384001;-68
2021/03/05 01:30:38;;;;;;;;;58.10;44.80;;;;;6.27;92.90;100089.42;486176;112;386631;-69
2021/03/05 01:31:42;;;;;;;;;52.70;40.50;;;;;6.27;93.22;100092.06;484280;112;395577;-70
2021/03/05 01:32:45;;;;;;;;;54.70;41.60;;;;;6.29;92.87;100074.30;486513;112;384956;-70
2021/03/05 01:33:49;;;;;;;;;52.20;41.40;;;;;6.29;92.87;100074.30;483907;112;385221;-70
2021/03/05 01:34:53;;;;;;;;;56.70;43.00;;;;;6.30;92.77;100075.16;484362;112;384460;-68
2021/03/05 01:35:57;;;;;;;;;57.10;42.20;;;;;6.31;92.63;100080.36;486387;112;385473;-71
2021/03/05 01:37:01;;;;;;;;;55.40;43.20;;;;;6.31;92.16;100082.14;484328;112;391664;-71
2021/03/05 01:38:05;;;;;;;;;58.20;42.80;;;;;6.34;92.15;100076.66;486374;112;386762;-71
2021/03/05 01:39:09;;;;;;;;;49.80;38.90;;;;;6.34;92.15;100076.66;484080;112;387612;-70
2021/03/05 01:40:17;;;;;;;;;55.10;43.40;;;;;6.33;92.26;100073.16;486101;112;385920;-70
2021/03/05 01:41:20;;;;;;;;;54.60;42.20;;;;;6.33;92.26;100073.16;486132;112;386076;-71
2021/03/05 01:42:24;;;;;;;;;54.50;42.90;;;;;6.31;92.71;100083.00;484317;112;386009;-71
2021/03/05 01:43:29;;;;;;;;;61.10;44.70;;;;;6.31;92.71;100083.00;483834;112;385919;-71
2021/03/05 01:44:33;;;;;;;;;58.50;44.60;;;;;6.28;92.63;100064.72;486137;112;385733;-71
2021/03/05 01:45:37;;;;;;;;;57.40;44.00;;;;;6.28;92.63;100064.72;483864;112;385187;-71
2021/03/05 01:46:41;;;;;;;;;45.70;37.70;;;;;6.34;92.49;100077.51;486188;112;383831;-71
2021/03/05 01:47:45;;;;;;;;;53.10;42.70;;;;;6.35;92.33;100073.90;484376;112;385062;-72
2021/03/05 01:48:49;;;;;;;;;48.20;41.00;;;;;6.35;92.16;100087.10;486426;112;385818;-71
2021/03/05 01:49:53;;;;;;;;;55.30;43.40;;;;;6.35;92.56;100076.54;484331;112;385103;-70
2021/03/05 01:50:59;;;;;;;;;58.20;44.40;;;;;6.34;92.46;100077.51;486422;112;386163;-70
2021/03/05 01:52:03;;;;;;;;;54.00;43.30;;;;;6.37;92.33;100081.73;483313;112;390806;-70
2021/03/05 01:53:07;;;;;;;;;55.40;43.80;;;;;6.37;92.33;100081.73;484345;112;383040;-70
2021/03/05 01:54:11;;;;;;;;;56.70;41.30;;;;;6.35;92.43;100083.61;486406;112;385008;-70
2021/03/05 01:55:15;;;;;;;;;59.50;44.00;;;;;6.28;93.34;100083.20;485876;112;387655;-71
2021/03/05 01:56:31;;;;;;;;;56.20;44.90;;;;;6.28;93.34;100083.20;484069;112;386094;-72
2021/03/05 01:57:35;;;;;;;;;52.40;39.90;;;;;6.33;92.69;100086.38;485703;112;386009;-72
2021/03/05 01:58:39;;;;;;;;;58.30;45.00;;;;;6.37;92.18;100087.87;484412;112;386190;-74
2021/03/05 01:59:43;;;;;;;;;56.20;43.10;;;;;6.34;92.58;100085.44;486414;112;386257;-72
2021/03/05 02:00:48;;;;;;;;;58.20;44.90;;;;;6.38;92.21;100083.44;484127;112;385138;-73
2021/03/05 02:01:52;;;;;;;;;58.60;43.70;;;;;6.36;92.00;100080.03;486237;112;386570;-71
2021/03/05 02:02:56;;;;;;;;;49.10;40.90;;;;;6.36;92.00;100080.03;486170;112;384410;-70
2021/03/05 02:04:01;;;;;;;;;58.50;45.10;;;;;6.22;91.81;100057.17;484319;112;392180;-73
2021/03/05 02:05:06;;;;;;;;;57.60;45.00;;;;;6.38;91.87;100088.72;485770;112;386239;-71
2021/03/05 02:06:11;;;;;;;;;55.00;41.90;;;;;6.35;92.83;100087.10;483811;112;392550;-70
2021/03/05 02:07:14;;;;;;;;;57.60;44.40;;;;;6.37;92.44;100087.02;486451;112;386338;-69
2021/03/05 02:08:19;;;;;;;;;58.20;44.70;;;;;6.42;92.06;100078.77;484053;112;385123;-70
2021/03/05 02:09:22;;;;;;;;;56.30;43.60;;;;;6.42;92.06;100078.77;484309;112;385118;-68
2021/03/05 02:10:28;;;;;;;;;61.70;45.90;;;;;6.46;91.46;100091.69;475627;114;387688;-69
2021/03/05 02:11:32;;;;;;;;;58.10;45.30;;;;;6.46;91.46;100091.69;479493;114;385544;-73
2021/03/05 02:12:36;;;;;;;;;58.00;43.60;;;;;6.48;91.41;100094.24;485956;112;386093;-73
2021/03/05 02:13:40;;;;;;;;;57.70;43.70;;;;;6.49;90.82;100088.84;485959;112;385736;-72
2021/03/05 02:14:44;;;;;;;;;53.20;45.70;;;;;6.49;90.92;100082.70;484344;112;386261;-72
2021/03/05 02:15:48;;;;;;;;;56.60;41.80;;;;;6.35;91.33;100067.77;486396;112;387200;-72
2021/03/05 02:16:58;;;;;;;;;61.90;48.80;;;;;6.35;91.33;100067.77;486381;112;394401;-71
2021/03/05 02:18:07;;;;;;;;;60.20;46.90;;;;;6.44;91.11;100083.02;483787;112;388330;-71
2021/03/05 02:19:23;;;;;;;;;58.20;45.70;;;;;6.45;91.89;100092.63;485945;112;386228;-71
2021/03/05 02:20:31;;;;;;;;;45.60;38.50;;;;;6.45;91.89;100092.63;484028;112;383735;-72
2021/03/05 02:22:01;;;;;;;;;56.10;42.60;;;;;6.47;91.57;100090.75;486146;112;384985;-73
2021/03/05 02:23:30;;;;;;;;;55.00;43.50;;;;;6.49;91.16;100090.63;483839;112;385915;-71
2021/03/05 02:25:00;;;;;;;;;63.70;46.10;;;;;6.47;91.69;100097.82;483807;112;389019;-73
2021/03/05 02:26:30;;;;;;;;;59.50;46.70;;;;;6.47;91.69;100097.82;485845;112;385444;-72
2021/03/05 02:28:09;;;;;;;;;58.70;42.30;;;;;6.43;91.65;100099.81;485889;112;385994;-71
2021/03/05 02:30:05;;;;;;;;;61.00;45.50;;;;;6.43;91.65;100099.81;486166;112;386256;-73
2021/03/05 02:31:19;;;;;;;;;60.50;47.10;;;;;6.43;91.90;100091.04;485928;112;385646;-70
2021/03/05 02:32:27;;;;;;;;;61.50;45.60;;;;;6.40;92.01;100094.73;483772;112;387835;-72
2021/03/05 02:33:33;;;;;;;;;62.00;49.20;;;;;6.40;92.01;100094.73;486223;112;385978;-72
2021/03/05 02:34:38;;;;;;;;;62.00;45.60;;;;;6.42;92.11;100089.34;486196;112;386809;-72
2021/03/05 02:35:42;;;;;;;;;59.30;44.80;;;;;6.42;92.11;100089.34;484041;112;386423;-75
2021/03/05 02:36:49;;;;;;;;;63.00;49.80;;;;;6.43;91.78;100089.25;486374;112;394103;-74
2021/03/05 02:37:53;;;;;;;;;55.70;45.10;;;;;6.45;91.55;100092.63;484041;112;385824;-71
2021/03/05 02:39:03;;;;;;;;;62.70;47.10;;;;;6.47;91.10;100079.33;486124;112;387112;-73
2021/03/05 02:40:09;;;;;;;;;62.90;46.30;;;;;6.47;90.96;100079.33;483877;112;387796;-74
2021/03/05 02:41:13;;;;;;;;;58.20;45.70;;;;;6.39;91.62;100083.32;484016;112;392929;-73
2021/03/05 02:42:20;;;;;;;;;51.30;40.00;;;;;6.39;91.62;100083.32;486430;112;385559;-71
2021/03/05 02:43:25;;;;;;;;;39.40;36.30;;;;;6.42;91.94;100087.55;484141;112;383415;-73
2021/03/05 02:44:30;;;;;;;;;59.20;44.60;;;;;6.41;91.41;100077.95;486146;112;386418;-72
2021/03/05 02:45:35;;;;;;;;;67.60;48.10;;;;;6.41;91.41;100077.95;483772;112;387535;-72
2021/03/05 02:46:41;;;;;;;;;63.30;48.80;;;;;6.45;91.20;100087.34;486049;112;394696;-73
2021/03/05 02:47:46;;;;;;;;;62.70;47.40;;;;;6.45;91.20;100087.34;484055;112;386164;-71
2021/03/05 02:48:50;;;;;;;;;62.60;47.60;;;;;6.42;91.47;100076.12;484069;112;387956;-73
2021/03/05 02:49:55;;;;;;;;;60.10;47.10;;;;;6.42;91.47;100076.12;486060;112;386209;-72
2021/03/05 02:51:01;;;;;;;;;60.30;47.00;;;;;6.39;92.31;100083.32;483799;112;387020;-71
2021/03/05 02:52:07;;;;;;;;;63.50;48.50;;;;;6.39;92.31;100083.32;485891;112;388088;-73
2021/03/05 02:53:12;;;;;;;;;62.50;49.20;;;;;6.38;91.86;100073.69;484093;112;387450;-72
2021/03/05 02:54:17;;;;;;;;;60.30;49.00;;;;;6.41;91.76;100085.02;486155;112;386620;-76
2021/03/05 02:55:20;;;;;;;;;61.90;47.80;;;;;6.45;91.22;100083.84;484124;112;387212;-74
2021/03/05 02:56:26;;;;;;;;;64.50;49.80;;;;;6.49;90.73;100086.20;483994;112;395339;-72
2021/03/05 02:57:31;;;;;;;;;59.80;48.00;;;;;6.51;90.26;100088.75;486452;112;385937;-72
2021/03/05 02:58:34;;;;;;;;;62.00;49.80;;;;;6.51;90.26;100088.75;483662;112;386329;-71
2021/03/05 02:59:38;;;;;;;;;64.70;50.40;;;;;6.54;89.89;100092.00;486005;112;385279;-69
2021/03/05 03:00:44;;;;;;;;;59.80;47.60;;;;;6.53;89.90;100082.41;484041;112;386422;-70
2021/03/05 03:01:48;;;;;;;;;63.50;47.40;;;;;6.53;89.90;100082.41;486464;112;388067;-72
2021/03/05 03:02:52;;;;;;;;;62.40;47.00;;;;;6.47;90.28;100080.18;484308;112;387059;-71
2021/03/05 03:03:57;;;;;;;;;63.60;49.40;;;;;6.47;90.28;100080.18;485822;112;386959;-70
2021/03/05 03:05:01;;;;;;;;;61.30;46.40;;;;;6.46;90.39;100085.55;484074;112;385856;-70
2021/03/05 03:06:07;;;;;;;;;64.60;50.80;;;;;6.43;90.84;100091.89;486418;112;394474;-68
2021/03/05 03:07:11;;;;;;;;;66.90;50.40;;;;;6.43;90.84;100091.89;484054;112;389490;-68
2021/03/05 03:08:15;;;;;;;;;67.40;51.20;;;;;6.46;90.81;100089.05;486383;112;387965;-69
2021/03/05 03:09:19;;;;;;;;;64.10;50.40;;;;;6.46;90.81;100089.05;484408;112;385555;-70
2021/03/05 03:10:26;;;;;;;;;69.80;52.60;;;;;6.47;90.12;100095.17;485827;112;388889;-69
2021/03/05 03:11:30;;;;;;;;;68.00;50.50;;;;;6.51;89.94;100091.39;483915;112;393602;-71
2021/03/05 03:12:34;;;;;;;;;66.00;49.10;;;;;6.51;89.94;100091.39;486391;112;387757;-71
2021/03/05 03:13:38;;;;;;;;;64.20;49.60;;;;;6.52;89.69;100095.70;483894;112;388044;-71
2021/03/05 03:14:43;;;;;;;;;67.10;51.80;;;;;6.52;89.69;100095.70;486356;112;394265;-72
2021/03/05 03:15:47;;;;;;;;;58.80;47.70;;;;;6.53;89.42;100089.48;485663;112;385296;-71
2021/03/05 03:16:51;;;;;;;;;61.90;50.40;;;;;6.41;90.37;100099.08;486079;112;386402;-71
2021/03/05 03:17:55;;;;;;;;;64.00;50.60;;;;;6.41;90.37;100099.08;486483;112;384941;-70
2021/03/05 03:18:59;;;;;;;;;61.60;46.00;;;;;6.43;90.17;100091.04;484331;112;388158;-70
2021/03/05 03:20:04;;;;;;;;;69.90;53.00;;;;;6.43;90.17;100091.04;486025;112;387385;-70
2021/03/05 03:21:08;;;;;;;;;64.40;49.40;;;;;6.44;90.17;100100.67;486077;112;394820;-70
2021/03/05 03:22:12;;;;;;;;;66.50;49.80;;;;;6.40;89.97;100100.02;483851;112;387453;-69
2021/03/05 03:23:16;;;;;;;;;67.00;51.80;;;;;6.42;90.13;100103.39;483896;112;387100;-68
2021/03/05 03:24:20;;;;;;;;;58.80;46.40;;;;;6.42;90.13;100103.39;486028;112;385958;-69
2021/03/05 03:25:24;;;;;;;;;70.30;51.60;;;;;6.40;90.40;100097.38;483578;112;394946;-69
2021/03/05 03:26:30;;;;;;;;;66.90;49.50;;;;;6.45;89.71;100104.98;485713;112;388945;-69
2021/03/05 03:27:34;;;;;;;;;64.50;50.50;;;;;6.43;89.93;100104.25;486374;112;386498;-69
2021/03/05 03:28:38;;;;;;;;;67.40;50.00;;;;;6.43;89.93;100104.25;484303;112;388003;-69
2021/03/05 03:29:42;;;;;;;;;64.70;51.00;;;;;6.43;90.02;100097.17;484348;112;393420;-70
2021/03/05 03:30:47;;;;;;;;;67.90;52.30;;;;;6.44;89.83;100104.16;486182;112;387642;-70
2021/03/05 03:31:51;;;;;;;;;66.70;51.30;;;;;6.44;89.83;100104.16;484191;112;387879;-72
2021/03/05 03:32:56;;;;;;;;;65.60;51.30;;;;;6.45;89.66;100100.55;484356;112;386330;-68
2021/03/05 03:34:00;;;;;;;;;70.60;51.80;;;;;6.47;89.41;100103.10;484001;112;396244;-68
2021/03/05 03:35:05;;;;;;;;;61.30;47.40;;;;;6.47;89.24;100108.39;486416;112;387138;-69
2021/03/05 03:36:10;;;;;;;;;63.70;49.70;;;;;6.47;89.24;100108.39;484091;112;385730;-70
2021/03/05 03:37:14;;;;;;;;;65.00;51.60;;;;;6.48;89.30;100104.81;486096;112;387644;-71
2021/03/05 03:38:18;;;;;;;;;70.80;55.00;;;;;6.46;89.10;100112.81;486166;112;387717;-69
2021/03/05 03:39:22;;;;;;;;;69.00;52.50;;;;;6.46;89.10;100112.81;484286;112;387678;-68
2021/03/05 03:40:27;;;;;;;;;68.50;51.40;;;;;6.46;89.18;100112.81;483954;112;394963;-69
2021/03/05 03:41:31;;;;;;;;;66.30;52.10;;;;;6.44;89.28;100108.59;486377;112;394705;-68
2021/03/05 03:42:34;;;;;;;;;66.60;53.40;;;;;6.42;89.63;100111.31;489423;110;393691;-69
2021/03/05 03:43:38;;;;;;;;;65.60;52.90;;;;;6.42;89.69;100111.31;492879;110;386595;-68
2021/03/05 03:44:42;;;;;;;;;74.00;55.00;;;;;6.45;89.03;100112.91;492838;110;389185;-70
2021/03/05 03:45:46;;;;;;;;;70.20;52.70;;;;;6.47;89.27;100113.67;494951;110;388435;-71
2021/03/05 03:46:50;;;;;;;;;71.40;53.40;;;;;6.50;88.99;100110.83;486277;110;388502;-70
2021/03/05 03:47:55;;;;;;;;;74.70;55.60;;;;;6.50;88.99;100110.83;474789;115;390054;-70
2021/03/05 03:49:02;;;;;;;;;68.50;53.30;;;;;6.51;88.42;100101.95;474117;115;387212;-74
2021/03/05 03:50:10;;;;;;;;;68.40;52.30;;;;;6.52;88.58;100106.27;474260;115;387813;-73
2021/03/05 03:51:14;;;;;;;;;71.90;53.40;;;;;6.52;88.30;100114.20;464455;115;389456;-72
2021/03/05 03:52:22;;;;;;;;;61.70;46.60;;;;;6.54;88.32;100104.39;459621;119;386452;-72
2021/03/05 03:53:26;;;;;;;;;69.80;53.80;;;;;6.55;87.85;100119.28;459619;119;387474;-73
2021/03/05 03:54:30;;;;;;;;;67.10;51.90;;;;;6.47;88.67;100111.03;459620;119;387249;-74
2021/03/05 03:55:34;;;;;;;;;72.10;54.30;;;;;6.43;88.83;100105.09;459877;119;389862;-75
2021/03/05 03:56:40;;;;;;;;;68.60;53.30;;;;;6.43;88.83;100105.09;459510;119;394513;-73
2021/03/05 03:57:47;;;;;;;;;72.80;56.00;;;;;6.42;88.85;100107.83;459891;119;386895;-74
2021/03/05 03:58:51;;;;;;;;;68.30;51.20;;;;;6.42;88.85;100107.83;459560;119;389042;-72
2021/03/05 03:59:55;;;;;;;;;72.45;55.09;;;;;6.35;90.18;100100.31;459817;119;394155;-73
2021/03/05 04:01:00;;;;;;;;;65.00;49.20;;;;;6.33;89.77;100096.94;459606;119;386327;-73
2021/03/05 04:02:04;;;;;;;;;71.90;52.40;;;;;6.33;89.77;100096.94;459546;119;395954;-72
2021/03/05 04:03:08;;;;;;;;;50.70;40.20;;;;;6.36;89.82;100101.16;459937;119;384323;-73
2021/03/05 04:04:12;;;;;;;;;72.70;56.30;;;;;6.36;89.82;100101.16;458778;119;386725;-73
2021/03/05 04:05:19;;;;;;;;;86.90;65.40;;;;;6.41;89.39;100096.44;458705;119;390166;-71
2021/03/05 04:06:24;;;;;;;;;81.40;61.50;;;;;6.41;89.39;100096.44;458251;119;389110;-72
2021/03/05 04:07:28;;;;;;;;;71.00;54.50;;;;;6.41;89.23;100101.72;458582;119;387564;-73
2021/03/05 04:08:33;;;;;;;;;61.50;47.50;;;;;6.41;89.23;100101.72;458812;119;387214;-73
2021/03/05 04:09:37;;;;;;;;;68.40;52.60;;;;;6.23;90.15;100095.84;458029;119;393368;-74
2021/03/05 04:10:43;;;;;;;;;72.60;54.90;;;;;6.23;90.15;100095.84;458125;119;388420;-73
2021/03/05 04:11:47;;;;;;;;;75.50;56.10;;;;;6.25;90.49;100099.22;458712;119;395302;-72
2021/03/05 04:12:51;;;;;;;;;77.30;56.10;;;;;6.28;90.24;100101.69;458332;119;388635;-70
2021/03/05 04:13:55;;;;;;;;;72.80;56.10;;;;;6.28;89.99;100093.77;458741;119;388094;-72
2021/03/05 04:14:58;;;;;;;;;67.50;51.80;;;;;6.31;89.77;100092.70;458788;119;387817;-71
2021/03/05 04:16:03;;;;;;;;;72.70;54.10;;;;;6.31;89.77;100092.70;458716;119;389167;-69
2021/03/05 04:17:07;;;;;;;;;69.00;53.70;;;;;6.34;89.75;100097.78;458468;119;394073;-67
2021/03/05 04:18:11;;;;;;;;;70.80;53.10;;;;;6.34;89.44;100095.14;458742;119;388408;-73
2021/03/05 04:19:15;;;;;;;;;61.50;47.00;;;;;6.24;90.53;100086.98;458784;119;385662;-69
2021/03/05 04:20:21;;;;;;;;;70.30;53.80;;;;;6.24;90.53;100086.98;458479;119;388798;-71
2021/03/05 04:21:27;;;;;;;;;68.10;51.70;;;;;6.24;90.72;100092.27;462522;117;386383;-77
2021/03/05 04:22:31;;;;;;;;;69.00;53.40;;;;;6.26;90.51;100095.64;466200;117;386519;-76
2021/03/05 04:23:35;;;;;;;;;75.30;56.80;;;;;6.30;90.38;100096.28;466386;117;388608;-76
2021/03/05 04:24:39;;;;;;;;;71.90;53.80;;;;;6.31;89.88;100090.92;466407;117;387834;-76
2021/03/05 04:25:43;;;;;;;;;60.50;42.50;;;;;6.36;89.48;100094.09;466373;117;395274;-76
2021/03/05 04:26:49;;;;;;;;;70.30;53.90;;;;;6.36;89.23;100091.45;465558;117;393042;-75
2021/03/05 04:27:53;;;;;;;;;66.70;52.20;;;;;6.36;89.23;100091.45;466419;117;386530;-76
2021/03/05 04:28:57;;;;;;;;;58.10;45.20;;;;;6.38;89.10;100094.82;466439;117;385894;-77
2021/03/05 04:30:01;;;;;;;;;64.20;49.50;;;;;6.35;89.44;100089.75;466385;117;388579;-76
2021/03/05 04:31:05;;;;;;;;;64.70;50.10;;;;;6.36;89.56;100091.45;466427;117;387139;-77
2021/03/05 04:32:09;;;;;;;;;66.50;50.10;;;;;6.31;89.55;100096.20;466410;117;393281;-77
2021/03/05 04:33:13;;;;;;;;;63.60;50.00;;;;;6.31;89.98;100092.70;466345;117;393358;-77
2021/03/05 04:34:17;;;;;;;;;72.90;55.90;;;;;6.32;89.81;100092.59;465879;117;395309;-77
2021/03/05 04:35:21;;;;;;;;;69.30;52.40;;;;;6.33;89.61;100093.44;466390;117;395730;-77
2021/03/05 04:36:26;;;;;;;;;72.70;55.30;;;;;6.29;89.73;100100.72;466169;117;385257;-78
2021/03/05 04:37:30;;;;;;;;;58.30;45.00;;;;;6.29;89.73;100100.72;466485;117;383869;-76
2021/03/05 04:38:33;;;;;;;;;74.90;56.30;;;;;6.27;90.16;100097.34;466390;117;388705;-77
2021/03/05 04:39:37;;;;;;;;;52.80;40.80;;;;;6.30;90.12;100101.57;466466;117;385647;-77
2021/03/05 04:40:42;;;;;;;;;54.90;42.20;;;;;6.24;90.30;100102.83;466189;117;389116;-77
2021/03/05 04:41:46;;;;;;;;;72.00;54.90;;;;;6.15;91.11;100097.30;466403;117;389128;-77
2021/03/05 04:42:50;;;;;;;;;71.80;53.60;;;;;6.18;90.99;100105.02;466411;117;387883;-76
2021/03/05 04:43:53;;;;;;;;;74.10;53.70;;;;;6.17;91.24;100112.09;466316;117;389895;-77
2021/03/05 04:44:57;;;;;;;;;45.10;38.30;;;;;6.14;91.76;100106.16;466603;117;381334;-77
2021/03/05 04:46:01;;;;;;;;;70.60;54.30;;;;;6.14;91.76;100106.16;466405;117;386972;-78
2021/03/05 04:47:05;;;;;;;;;69.20;53.20;;;;;6.21;91.02;100108.31;466378;117;388396;-76
2021/03/05 04:48:10;;;;;;;;;75.00;55.80;;;;;6.23;90.63;100106.41;466381;117;388729;-75
2021/03/05 04:49:14;;;;;;;;;55.50;39.10;;;;;6.20;91.16;100106.61;466208;117;385515;-78
2021/03/05 04:50:18;;;;;;;;;70.20;54.10;;;;;6.20;91.16;100106.61;466106;117;388269;-77
2021/03/05 04:51:22;;;;;;;;;72.30;55.50;;;;;6.20;91.17;100114.53;466346;117;387656;-74
2021/03/05 04:52:26;;;;;;;;;72.00;55.80;;;;;6.22;91.13;100107.34;465993;117;387725;-78
2021/03/05 04:53:30;;;;;;;;;71.80;54.00;;;;;6.22;91.13;100107.34;466397;117;388441;-77
2021/03/05 04:54:34;;;;;;;;;74.40;54.30;;;;;6.14;91.28;100107.01;465869;117;388259;-76
2021/03/05 04:55:40;;;;;;;;;49.30;40.80;;;;;6.17;91.29;100106.81;466516;117;383538;-77
2021/03/05 04:56:45;;;;;;;;;73.80;55.80;;;;;6.14;91.48;100111.44;466081;117;389808;-79